Time;durP1;ratioP1;P1;durP2;ratioP2;P2;SDS_P1;SDS_P2;PMS_P1;PMS_P2;Temp;Humidity;BMP_temperature;BMP_pressure;BME280_temperature;BME280_humidity;BME280_pressure;Samples;Min_cycle;Max_cycle;Signal;HPM_P1;HPM_P2
2022/07/26 00:01:43;;;;;;;2.87;1.73;;;;;;;;;;5019539;28;20226;-75
2022/07/26 00:04:10;;;;;;;2.50;1.60;;;;;;;;;;5016501;28;20179;-75
2022/07/26 00:06:36;;;;;;;3.10;1.60;;;;;;;;;;5023588;28;20181;-75
2022/07/26 00:09:01;;;;;;;4.70;1.70;;;;;;;;;;5029376;28;20180;-74
2022/07/26 00:11:28;;;;;;;1.73;1.50;;;;;;;;;;5024511;28;20179;-75
2022/07/26 00:13:53;;;;;;;4.50;1.50;;;;;;;;;;5018847;28;20307;-74
2022/07/26 00:16:18;;;;;;;2.97;1.67;;;;;;;;;;5023677;28;20262;-75
2022/07/26 00:18:46;;;;;;;1.63;1.53;;;;;;;;;;5021312;28;20207;-75
2022/07/26 00:21:11;;;;;;;1.70;1.60;;;;;;;;;;5015858;28;20194;-75
2022/07/26 00:23:36;;;;;;;1.67;1.50;;;;;;;;;;5027585;28;20180;-75
2022/07/26 00:26:01;;;;;;;1.90;1.60;;;;;;;;;;5024749;28;20186;-74
2022/07/26 00:28:27;;;;;;;2.50;1.40;;;;;;;;;;5015331;28;20213;-75
2022/07/26 00:30:52;;;;;;;1.50;1.40;;;;;;;;;;5019218;28;20192;-75
2022/07/26 00:33:17;;;;;;;3.17;1.40;;;;;;;;;;5013375;28;20178;-76
2022/07/26 00:35:45;;;;;;;2.57;1.80;;;;;;;;;;5018748;28;20193;-73
2022/07/26 00:38:10;;;;;;;2.60;2.03;;;;;;;;;;5025505;28;20237;-73
2022/07/26 00:40:35;;;;;;;1.70;1.60;;;;;;;;;;5017845;28;20269;-71
2022/07/26 00:43:00;;;;;;;2.90;1.70;;;;;;;;;;5017781;28;20257;-72
2022/07/26 00:45:26;;;;;;;1.90;1.70;;;;;;;;;;5022694;28;20232;-73
2022/07/26 00:47:51;;;;;;;2.33;2.07;;;;;;;;;;5017698;28;20190;-73
2022/07/26 00:50:17;;;;;;;1.73;1.60;;;;;;;;;;5022835;28;20222;-73
2022/07/26 00:52:43;;;;;;;2.50;1.80;;;;;;;;;;5026140;28;20193;-72
2022/07/26 00:55:08;;;;;;;3.03;1.70;;;;;;;;;;5019328;28;20184;-73
2022/07/26 00:57:34;;;;;;;3.07;1.67;;;;;;;;;;5018096;28;20211;-73
2022/07/26 01:00:00;;;;;;;1.60;1.50;;;;;;;;;;5018341;28;20186;-72
2022/07/26 01:02:25;;;;;;;1.83;1.70;;;;;;;;;;5023052;28;20496;-74
2022/07/26 01:04:50;;;;;;;1.93;1.73;;;;;;;;;;5017576;28;20185;-73
2022/07/26 01:07:16;;;;;;;2.97;1.80;;;;;;;;;;5015469;28;20183;-73
2022/07/26 01:09:41;;;;;;;1.77;1.67;;;;;;;;;;5022545;28;20179;-73
2022/07/26 01:12:07;;;;;;;1.80;1.63;;;;;;;;;;5026589;28;20187;-73
2022/07/26 01:14:32;;;;;;;2.30;1.93;;;;;;;;;;5019058;28;20175;-72
2022/07/26 01:16:58;;;;;;;1.60;1.50;;;;;;;;;;5019514;28;20206;-73
2022/07/26 01:19:23;;;;;;;2.27;1.77;;;;;;;;;;5021897;28;20235;-73
2022/07/26 01:21:49;;;;;;;2.73;1.80;;;;;;;;;;5021441;28;20182;-74
2022/07/26 01:24:14;;;;;;;1.77;1.60;;;;;;;;;;5017961;28;20230;-73
2022/07/26 01:26:39;;;;;;;2.43;1.80;;;;;;;;;;5016868;28;20175;-73
2022/07/26 01:29:05;;;;;;;5.17;2.23;;;;;;;;;;5015098;28;20170;-72
2022/07/26 01:31:30;;;;;;;1.80;1.70;;;;;;;;;;5019300;28;20181;-72
2022/07/26 01:33:56;;;;;;;2.00;1.77;;;;;;;;;;5023523;28;20213;-73
2022/07/26 01:36:21;;;;;;;3.50;1.90;;;;;;;;;;5017276;28;20181;-73
2022/07/26 01:38:46;;;;;;;2.53;1.80;;;;;;;;;;5018525;28;20212;-73
2022/07/26 01:41:11;;;;;;;2.90;1.67;;;;;;;;;;5024137;28;20205;-73
2022/07/26 01:43:37;;;;;;;1.70;1.60;;;;;;;;;;5023960;28;20176;-73
2022/07/26 01:46:03;;;;;;;2.20;2.00;;;;;;;;;;5033562;28;20219;-72
2022/07/26 01:48:29;;;;;;;2.90;2.20;;;;;;;;;;5022695;28;20184;-72
2022/07/26 01:50:54;;;;;;;2.43;1.70;;;;;;;;;;5022314;28;20280;-73
2022/07/26 01:53:19;;;;;;;5.13;1.90;;;;;;;;;;5031344;28;20219;-73
2022/07/26 01:55:44;;;;;;;2.80;2.17;;;;;;;;;;5025741;28;20294;-73
2022/07/26 01:58:09;;;;;;;3.00;1.57;;;;;;;;;;5027524;28;20230;-72
2022/07/26 02:00:35;;;;;;;2.37;2.00;;;;;;;;;;5020412;28;20180;-72
2022/07/26 02:03:00;;;;;;;1.83;1.73;;;;;;;;;;5023166;28;20262;-73
2022/07/26 02:05:25;;;;;;;2.00;1.80;;;;;;;;;;5040078;28;20204;-72
2022/07/26 02:07:51;;;;;;;2.20;2.00;;;;;;;;;;5047119;28;20271;-72
2022/07/26 02:10:16;;;;;;;2.50;1.77;;;;;;;;;;5022634;28;20209;-72
2022/07/26 02:12:42;;;;;;;1.60;1.50;;;;;;;;;;5019876;28;20177;-73
2022/07/26 02:15:08;;;;;;;2.20;2.00;;;;;;;;;;5043173;28;20179;-72
2022/07/26 02:17:33;;;;;;;2.37;2.03;;;;;;;;;;5030016;28;20199;-73
2022/07/26 02:19:58;;;;;;;1.87;1.77;;;;;;;;;;5047613;28;20185;-73
2022/07/26 02:22:24;;;;;;;6.53;2.50;;;;;;;;;;5021228;28;20180;-72
2022/07/26 02:24:49;;;;;;;2.20;1.97;;;;;;;;;;5044110;28;20191;-72
2022/07/26 02:27:14;;;;;;;2.50;2.30;;;;;;;;;;5042352;28;20214;-72
2022/07/26 02:29:40;;;;;;;4.13;2.57;;;;;;;;;;5028512;28;20253;-72
2022/07/26 02:32:05;;;;;;;3.40;1.90;;;;;;;;;;5029960;28;20229;-72
2022/07/26 02:34:30;;;;;;;2.00;1.90;;;;;;;;;;5019479;28;20193;-72
2022/07/26 02:36:56;;;;;;;2.07;1.90;;;;;;;;;;5030984;28;20212;-72
2022/07/26 02:39:26;;;;;;;2.47;1.97;;;;;;;;;;5027963;28;20295;-72
2022/07/26 02:41:51;;;;;;;2.80;2.37;;;;;;;;;;5028982;28;20240;-73
2022/07/26 02:44:17;;;;;;;2.30;2.10;;;;;;;;;;5020263;28;20191;-72
2022/07/26 02:46:42;;;;;;;2.27;2.07;;;;;;;;;;5047694;28;20201;-73
2022/07/26 02:49:07;;;;;;;2.67;2.00;;;;;;;;;;5025100;28;20219;-72
2022/07/26 02:51:32;;;;;;;2.30;2.10;;;;;;;;;;5026261;28;20234;-72
2022/07/26 02:53:57;;;;;;;2.67;2.17;;;;;;;;;;5030251;28;20289;-72
2022/07/26 02:56:23;;;;;;;3.97;2.13;;;;;;;;;;5051168;28;20285;-73
2022/07/26 02:58:48;;;;;;;3.20;2.13;;;;;;;;;;5026611;28;20216;-73
2022/07/26 03:01:13;;;;;;;3.40;2.70;;;;;;;;;;5029942;28;20187;-72
2022/07/26 03:03:39;;;;;;;4.00;2.23;;;;;;;;;;5046221;28;20230;-73
2022/07/26 03:06:04;;;;;;;2.53;2.30;;;;;;;;;;5029696;28;20195;-72
2022/07/26 03:08:29;;;;;;;2.53;2.33;;;;;;;;;;5025409;28;20184;-73
2022/07/26 03:10:54;;;;;;;2.70;2.33;;;;;;;;;;5022817;28;20202;-72
2022/07/26 03:13:19;;;;;;;2.77;2.20;;;;;;;;;;5027494;28;20192;-72
2022/07/26 03:15:45;;;;;;;3.80;2.30;;;;;;;;;;5030955;28;20224;-73
2022/07/26 03:18:10;;;;;;;2.93;2.50;;;;;;;;;;5027119;28;20214;-73
2022/07/26 03:20:35;;;;;;;3.07;2.40;;;;;;;;;;5024636;28;20173;-72
2022/07/26 03:23:00;;;;;;;2.30;2.10;;;;;;;;;;5028129;28;20287;-73
2022/07/26 03:25:26;;;;;;;2.40;2.20;;;;;;;;;;5023038;28;20175;-73
2022/07/26 03:27:55;;;;;;;2.27;2.13;;;;;;;;;;5022743;28;20269;-72
2022/07/26 03:30:20;;;;;;;3.00;2.17;;;;;;;;;;5046864;28;20205;-72
2022/07/26 03:32:46;;;;;;;3.63;2.80;;;;;;;;;;5045974;28;20217;-74
2022/07/26 03:35:11;;;;;;;2.93;2.57;;;;;;;;;;5027931;28;20181;-73
2022/07/26 03:37:36;;;;;;;3.77;2.90;;;;;;;;;;5027055;28;20214;-72
2022/07/26 03:40:01;;;;;;;3.00;2.70;;;;;;;;;;5028811;28;20235;-72
2022/07/26 03:42:26;;;;;;;3.07;2.73;;;;;;;;;;5025883;28;20181;-72
2022/07/26 03:44:52;;;;;;;3.07;2.87;;;;;;;;;;5045008;28;20224;-72
2022/07/26 03:47:17;;;;;;;3.53;2.67;;;;;;;;;;5047074;28;20273;-72
2022/07/26 03:49:42;;;;;;;2.70;2.50;;;;;;;;;;5028143;28;20186;-73
2022/07/26 03:52:09;;;;;;;3.53;2.73;;;;;;;;;;5025070;28;20186;-72
2022/07/26 03:54:34;;;;;;;4.43;3.23;;;;;;;;;;5025666;28;20190;-73
2022/07/26 03:57:00;;;;;;;3.20;2.90;;;;;;;;;;5033542;28;20249;-73
2022/07/26 03:59:26;;;;;;;3.27;2.97;;;;;;;;;;5029276;28;20259;-73
2022/07/26 04:01:51;;;;;;;3.63;2.60;;;;;;;;;;5040864;28;20191;-73
2022/07/26 04:04:17;;;;;;;5.33;3.27;;;;;;;;;;5041701;28;20268;-73
2022/07/26 04:06:43;;;;;;;4.63;3.27;;;;;;;;;;5031121;28;20215;-73
2022/07/26 04:09:08;;;;;;;3.23;2.97;;;;;;;;;;5043839;28;20257;-73
2022/07/26 04:11:34;;;;;;;3.33;3.10;;;;;;;;;;5041877;28;20260;-72
2022/07/26 04:13:59;;;;;;;3.43;3.00;;;;;;;;;;5024771;28;20174;-73
2022/07/26 04:16:24;;;;;;;5.53;3.30;;;;;;;;;;5022105;28;20220;-73
2022/07/26 04:18:49;;;;;;;4.17;3.30;;;;;;;;;;5019907;28;20210;-73
2022/07/26 04:21:15;;;;;;;4.10;3.10;;;;;;;;;;5028101;28;20212;-72
2022/07/26 04:23:40;;;;;;;5.20;3.37;;;;;;;;;;5044144;28;20185;-72
2022/07/26 04:26:05;;;;;;;4.30;3.90;;;;;;;;;;5041079;28;20268;-73
2022/07/26 04:28:32;;;;;;;3.90;3.60;;;;;;;;;;5042079;28;20497;-73
2022/07/26 04:30:57;;;;;;;4.20;3.77;;;;;;;;;;5022992;28;20212;-72
2022/07/26 04:33:23;;;;;;;4.70;3.30;;;;;;;;;;5023954;28;20211;-73
2022/07/26 04:35:48;;;;;;;3.67;3.37;;;;;;;;;;5023834;28;20177;-73
2022/07/26 04:38:13;;;;;;;4.20;3.70;;;;;;;;;;5026136;28;20206;-72
2022/07/26 04:40:41;;;;;;;6.57;3.87;;;;;;;;;;5022239;28;20181;-72
2022/07/26 04:43:06;;;;;;;7.77;3.80;;;;;;;;;;5024978;28;20174;-72
2022/07/26 04:45:31;;;;;;;4.40;4.00;;;;;;;;;;5023338;28;20259;-74
2022/07/26 04:47:56;;;;;;;4.77;3.90;;;;;;;;;;5042248;28;20231;-75
2022/07/26 04:50:22;;;;;;;3.80;3.50;;;;;;;;;;5038173;28;20189;-73
2022/07/26 04:52:48;;;;;;;3.87;3.40;;;;;;;;;;5016642;28;20197;-72
2022/07/26 04:55:13;;;;;;;4.67;3.53;;;;;;;;;;5025553;28;20216;-72
2022/07/26 04:57:39;;;;;;;3.80;3.50;;;;;;;;;;5024816;28;20209;-72
2022/07/26 05:00:07;;;;;;;5.40;4.33;;;;;;;;;;5041703;28;20178;-78
2022/07/26 05:02:33;;;;;;;4.43;3.77;;;;;;;;;;5023320;28;20310;-74
2022/07/26 05:04:58;;;;;;;5.43;3.47;;;;;;;;;;5029504;28;20200;-73
2022/07/26 05:07:23;;;;;;;4.67;3.77;;;;;;;;;;5031225;28;20183;-73
2022/07/26 05:09:48;;;;;;;4.10;3.33;;;;;;;;;;5027598;28;20323;-72
2022/07/26 05:12:13;;;;;;;5.57;3.37;;;;;;;;;;5045326;28;20264;-75
2022/07/26 05:14:39;;;;;;;3.57;3.07;;;;;;;;;;5024233;28;20194;-75
2022/07/26 05:17:04;;;;;;;4.27;3.00;;;;;;;;;;5047562;28;20215;-74
2022/07/26 05:19:29;;;;;;;3.43;3.13;;;;;;;;;;5026811;28;20177;-74
2022/07/26 05:21:54;;;;;;;3.50;3.20;;;;;;;;;;5024674;28;20186;-74
2022/07/26 05:24:20;;;;;;;7.90;3.60;;;;;;;;;;5042408;28;20234;-74
2022/07/26 05:26:45;;;;;;;4.93;3.13;;;;;;;;;;5021174;28;20181;-74
2022/07/26 05:29:10;;;;;;;4.20;3.00;;;;;;;;;;5028618;28;20177;-74
2022/07/26 05:31:35;;;;;;;3.67;2.57;;;;;;;;;;5023115;28;20209;-75
2022/07/26 05:34:02;;;;;;;3.00;2.50;;;;;;;;;;5028044;28;20205;-73
2022/07/26 05:36:27;;;;;;;3.27;3.03;;;;;;;;;;5029310;28;20173;-73
2022/07/26 05:38:52;;;;;;;2.70;2.50;;;;;;;;;;5037878;28;20208;-73
2022/07/26 05:41:18;;;;;;;4.33;2.57;;;;;;;;;;5026112;28;20269;-73
2022/07/26 05:43:43;;;;;;;3.60;2.40;;;;;;;;;;5045839;28;20190;-73
2022/07/26 05:46:09;;;;;;;3.70;2.67;;;;;;;;;;5022537;28;20241;-73
2022/07/26 05:48:34;;;;;;;2.73;2.30;;;;;;;;;;5019381;28;20174;-73
2022/07/26 05:50:59;;;;;;;3.73;2.47;;;;;;;;;;5023782;28;20186;-73
2022/07/26 05:53:25;;;;;;;2.77;2.53;;;;;;;;;;5022055;28;20209;-73
2022/07/26 05:55:50;;;;;;;2.53;2.33;;;;;;;;;;5021685;28;20217;-73
2022/07/26 05:58:15;;;;;;;2.93;1.90;;;;;;;;;;5020579;28;20221;-73
2022/07/26 06:00:40;;;;;;;2.77;1.80;;;;;;;;;;5018308;28;20216;-73
2022/07/26 06:03:21;;;;;;;2.20;1.83;;;;;;;;;;5023834;28;20331;-73
2022/07/26 06:05:50;;;;;;;5.73;2.10;;;;;;;;;;5026858;28;20181;-73
2022/07/26 06:08:15;;;;;;;2.60;1.63;;;;;;;;;;5028786;28;20232;-73
2022/07/26 06:10:40;;;;;;;2.93;2.10;;;;;;;;;;5025080;28;20187;-73
2022/07/26 06:13:05;;;;;;;2.30;2.10;;;;;;;;;;5026119;28;20216;-72
2022/07/26 06:15:31;;;;;;;3.60;2.17;;;;;;;;;;5021022;28;20191;-73
2022/07/26 06:17:56;;;;;;;2.23;1.80;;;;;;;;;;5022595;28;20542;-73
2022/07/26 06:20:21;;;;;;;4.30;2.00;;;;;;;;;;5027473;28;20182;-73
2022/07/26 06:22:46;;;;;;;2.23;1.83;;;;;;;;;;5027925;28;20209;-73
2022/07/26 06:25:11;;;;;;;2.00;1.80;;;;;;;;;;5026568;28;20182;-73
2022/07/26 06:27:37;;;;;;;1.90;1.53;;;;;;;;;;5025795;28;20202;-73
2022/07/26 06:30:02;;;;;;;2.97;1.70;;;;;;;;;;5027525;28;20276;-73
2022/07/26 06:32:27;;;;;;;1.83;1.53;;;;;;;;;;5028466;28;20236;-73
2022/07/26 06:34:53;;;;;;;2.00;1.80;;;;;;;;;;5020273;28;20182;-73
2022/07/26 06:37:18;;;;;;;2.03;1.70;;;;;;;;;;5025254;28;20205;-73
2022/07/26 06:39:43;;;;;;;3.37;1.50;;;;;;;;;;5021575;28;20274;-74
2022/07/26 06:42:08;;;;;;;1.67;1.57;;;;;;;;;;5024929;28;20187;-74
2022/07/26 06:44:34;;;;;;;2.43;1.57;;;;;;;;;;5027638;28;20237;-74
2022/07/26 06:46:59;;;;;;;2.63;1.60;;;;;;;;;;5085650;22;20255;-72
2022/07/26 06:49:24;;;;;;;2.97;1.77;;;;;;;;;;5055083;28;20215;-72
2022/07/26 06:51:49;;;;;;;3.47;1.97;;;;;;;;;;5047351;28;20183;-72
2022/07/26 06:54:17;;;;;;;1.53;1.43;;;;;;;;;;5051905;28;20182;-72
2022/07/26 06:56:42;;;;;;;1.70;1.60;;;;;;;;;;5062569;28;20204;-72
2022/07/26 06:59:07;;;;;;;3.13;1.43;;;;;;;;;;5066223;28;20174;-72
2022/07/26 07:01:32;;;;;;;4.57;1.50;;;;;;;;;;5042419;28;20255;-72
2022/07/26 07:03:58;;;;;;;1.33;1.10;;;;;;;;;;5058672;28;20173;-72
2022/07/26 07:06:23;;;;;;;1.60;1.50;;;;;;;;;;5056071;28;20249;-72
2022/07/26 07:08:48;;;;;;;1.30;1.20;;;;;;;;;;5049011;28;20182;-72
2022/07/26 07:11:13;;;;;;;1.93;1.23;;;;;;;;;;5061622;28;20216;-72
2022/07/26 07:13:38;;;;;;;2.43;1.33;;;;;;;;;;5063510;28;20190;-72
2022/07/26 07:16:04;;;;;;;1.53;1.37;;;;;;;;;;5045277;28;20192;-72
2022/07/26 07:18:29;;;;;;;2.50;1.37;;;;;;;;;;5068243;28;20224;-73
2022/07/26 07:20:54;;;;;;;1.43;1.17;;;;;;;;;;5047529;28;20448;-72
2022/07/26 07:23:22;;;;;;;1.40;1.30;;;;;;;;;;5049148;28;20666;-72
2022/07/26 07:25:47;;;;;;;2.40;1.23;;;;;;;;;;5050701;28;20186;-72
2022/07/26 07:28:13;;;;;;;1.80;1.40;;;;;;;;;;5046755;28;20181;-73
2022/07/26 07:30:38;;;;;;;2.37;1.20;;;;;;;;;;5068742;28;20174;-72
2022/07/26 07:33:03;;;;;;;1.50;1.30;;;;;;;;;;5048130;28;20193;-72
2022/07/26 07:35:28;;;;;;;2.80;1.43;;;;;;;;;;5039568;28;20180;-72
2022/07/26 07:37:53;;;;;;;2.77;1.50;;;;;;;;;;5050740;28;20292;-72
2022/07/26 07:40:19;;;;;;;2.47;1.57;;;;;;;;;;5043384;28;20181;-72
2022/07/26 07:42:44;;;;;;;2.43;1.93;;;;;;;;;;5047172;28;20189;-72
2022/07/26 07:45:10;;;;;;;2.10;1.37;;;;;;;;;;5050615;28;20179;-72
2022/07/26 07:47:35;;;;;;;3.60;1.40;;;;;;;;;;5066544;28;20219;-72
2022/07/26 07:50:00;;;;;;;2.30;1.90;;;;;;;;;;5047237;28;20186;-72
2022/07/26 07:52:26;;;;;;;2.87;1.40;;;;;;;;;;5057126;28;20174;-72
2022/07/26 07:54:51;;;;;;;1.77;1.57;;;;;;;;;;5043382;28;20183;-72
2022/07/26 07:57:16;;;;;;;3.77;2.13;;;;;;;;;;5051257;28;20304;-73
2022/07/26 07:59:41;;;;;;;1.37;1.23;;;;;;;;;;5068727;28;20180;-72
2022/07/26 08:02:08;;;;;;;1.90;1.30;;;;;;;;;;5064015;28;20237;-72
2022/07/26 08:04:33;;;;;;;1.50;1.40;;;;;;;;;;5058465;28;20167;-72
2022/07/26 08:06:58;;;;;;;3.70;1.47;;;;;;;;;;5046518;28;20264;-72
2022/07/26 08:09:23;;;;;;;2.23;1.43;;;;;;;;;;5061506;28;20211;-72
2022/07/26 08:11:48;;;;;;;3.10;1.30;;;;;;;;;;5049038;28;20196;-72
2022/07/26 08:14:14;;;;;;;1.57;1.20;;;;;;;;;;5064905;28;20170;-73
2022/07/26 08:16:39;;;;;;;4.20;1.60;;;;;;;;;;5051367;28;20202;-75
2022/07/26 08:19:04;;;;;;;1.43;1.20;;;;;;;;;;5063742;28;20199;-74
2022/07/26 08:21:29;;;;;;;2.73;1.50;;;;;;;;;;5042779;28;20186;-73
2022/07/26 08:23:55;;;;;;;2.53;2.00;;;;;;;;;;5043435;28;20182;-72
2022/07/26 08:26:20;;;;;;;1.77;1.30;;;;;;;;;;5066268;28;20264;-72
2022/07/26 08:28:45;;;;;;;1.43;1.33;;;;;;;;;;5056361;28;20179;-72
2022/07/26 08:31:11;;;;;;;1.60;1.40;;;;;;;;;;5049218;28;20272;-73
2022/07/26 08:33:36;;;;;;;1.60;1.40;;;;;;;;;;5051708;28;20175;-73
2022/07/26 08:36:01;;;;;;;1.40;1.30;;;;;;;;;;5042087;28;20197;-73
2022/07/26 08:38:26;;;;;;;3.90;1.60;;;;;;;;;;5053173;28;20204;-72
2022/07/26 08:40:53;;;;;;;2.70;1.60;;;;;;;;;;5047807;28;20195;-73
2022/07/26 08:43:18;;;;;;;1.70;1.60;;;;;;;;;;5063264;28;20179;-73
2022/07/26 08:45:44;;;;;;;1.20;1.10;;;;;;;;;;5050994;28;20191;-72
2022/07/26 08:48:10;;;;;;;3.53;1.73;;;;;;;;;;5037935;28;20242;-72
2022/07/26 08:50:35;;;;;;;3.87;1.80;;;;;;;;;;5044708;28;20184;-72
2022/07/26 08:53:02;;;;;;;1.97;1.43;;;;;;;;;;5039871;28;20188;-73
2022/07/26 08:55:28;;;;;;;2.63;1.30;;;;;;;;;;5043136;28;20200;-72
2022/07/26 08:57:53;;;;;;;3.10;1.30;;;;;;;;;;5045955;28;20213;-72
2022/07/26 09:00:20;;;;;;;1.60;1.50;;;;;;;;;;5043423;28;20181;-73
2022/07/26 09:02:45;;;;;;;2.80;1.40;;;;;;;;;;5040730;28;20188;-72
2022/07/26 09:05:11;;;;;;;1.93;1.30;;;;;;;;;;5040987;28;20246;-73
2022/07/26 09:07:38;;;;;;;2.37;1.47;;;;;;;;;;5045985;28;20184;-72
2022/07/26 09:10:08;;;;;;;3.00;1.30;;;;;;;;;;5050368;28;20188;-72
2022/07/26 09:12:33;;;;;;;1.53;1.23;;;;;;;;;;5043039;28;20200;-72
2022/07/26 09:14:59;;;;;;;1.63;1.53;;;;;;;;;;5042988;28;20179;-72
2022/07/26 09:17:36;;;;;;;1.60;1.10;;;;;;;;;;5047693;28;20201;-72
2022/07/26 09:20:12;;;;;;;1.40;1.30;;;;;;;;;;5049187;28;20170;-73
2022/07/26 09:22:38;;;;;;;1.67;1.20;;;;;;;;;;5038356;28;20219;-73
2022/07/26 09:25:17;;;;;;;1.60;1.37;;;;;;;;;;5044726;28;20252;-73
2022/07/26 09:27:43;;;;;;;2.93;1.30;;;;;;;;;;5042832;28;20195;-73
2022/07/26 09:30:08;;;;;;;4.93;1.60;;;;;;;;;;5049010;28;20178;-73
2022/07/26 09:32:35;;;;;;;1.27;1.10;;;;;;;;;;5047628;28;20209;-73
2022/07/26 09:35:16;;;;;;;2.07;1.37;;;;;;;;;;5049081;28;20182;-73
2022/07/26 09:37:45;;;;;;;4.83;1.33;;;;;;;;;;5045243;28;20190;-73
2022/07/26 09:40:12;;;;;;;2.83;1.30;;;;;;;;;;5050866;28;20176;-72
2022/07/26 09:42:51;;;;;;;1.90;1.23;;;;;;;;;;5052124;28;20201;-73
2022/07/26 09:45:17;;;;;;;2.77;1.13;;;;;;;;;;5049623;28;20181;-73
2022/07/26 09:47:43;;;;;;;1.10;1.00;;;;;;;;;;5047272;28;20232;-73
2022/07/26 09:50:15;;;;;;;2.57;1.60;;;;;;;;;;5048437;28;20179;-73
2022/07/26 09:53:01;;;;;;;2.00;1.30;;;;;;;;;;5049210;28;20282;-72
2022/07/26 09:55:27;;;;;;;2.03;1.33;;;;;;;;;;5045510;28;20209;-72
2022/07/26 09:57:52;;;;;;;1.73;1.40;;;;;;;;;;5048914;28;20208;-72
2022/07/26 10:00:17;;;;;;;1.40;1.30;;;;;;;;;;5051704;28;20225;-72
2022/07/26 10:02:43;;;;;;;2.37;1.40;;;;;;;;;;5046620;28;20179;-73
2022/07/26 10:05:08;;;;;;;1.73;1.33;;;;;;;;;;5054262;28;20171;-73
2022/07/26 10:07:34;;;;;;;2.13;1.00;;;;;;;;;;5048427;28;20179;-73
2022/07/26 10:10:01;;;;;;;1.73;1.23;;;;;;;;;;5048548;28;20209;-73
2022/07/26 10:12:28;;;;;;;1.70;1.10;;;;;;;;;;5051325;28;20236;-72
2022/07/26 10:14:55;;;;;;;2.93;1.57;;;;;;;;;;5047888;28;20187;-73
2022/07/26 10:17:29;;;;;;;2.17;1.10;;;;;;;;;;5051675;28;20201;-72
2022/07/26 10:19:55;;;;;;;2.27;1.47;;;;;;;;;;5050679;28;20226;-73
2022/07/26 10:22:32;;;;;;;2.33;1.50;;;;;;;;;;5049062;28;20173;-73
2022/07/26 10:25:18;;;;;;;1.50;1.40;;;;;;;;;;5047559;28;20268;-73
2022/07/26 10:27:43;;;;;;;1.27;1.20;;;;;;;;;;5040917;28;20193;-73
2022/07/26 10:30:17;;;;;;;1.27;1.10;;;;;;;;;;5045427;28;20409;-73
2022/07/26 10:32:52;;;;;;;1.40;1.30;;;;;;;;;;5040607;28;20252;-73
2022/07/26 10:35:28;;;;;;;1.40;1.30;;;;;;;;;;5040221;28;20181;-72
2022/07/26 10:38:13;;;;;;;2.43;1.70;;;;;;;;;;5045813;28;20205;-73
2022/07/26 10:40:54;;;;;;;1.30;1.20;;;;;;;;;;5048970;28;20182;-72
2022/07/26 10:43:19;;;;;;;1.63;1.13;;;;;;;;;;5047386;28;20181;-73
2022/07/26 10:45:44;;;;;;;1.70;1.30;;;;;;;;;;5043186;28;20211;-73
2022/07/26 10:48:17;;;;;;;1.40;1.10;;;;;;;;;;5047061;28;20279;-72
2022/07/26 10:50:44;;;;;;;2.60;1.20;;;;;;;;;;5044285;28;20181;-73
2022/07/26 10:53:10;;;;;;;2.70;1.33;;;;;;;;;;5048851;28;20185;-73
2022/07/26 10:55:45;;;;;;;1.50;1.13;;;;;;;;;;5041218;28;20219;-73
2022/07/26 10:58:10;;;;;;;1.03;1.03;;;;;;;;;;5043551;28;20213;-72
2022/07/26 11:00:36;;;;;;;1.10;1.10;;;;;;;;;;5052383;28;20268;-73
2022/07/26 11:03:01;;;;;;;1.30;1.20;;;;;;;;;;5045385;28;20191;-73
2022/07/26 11:05:29;;;;;;;2.27;1.20;;;;;;;;;;5043650;28;20177;-73
2022/07/26 11:08:09;;;;;;;3.10;1.30;;;;;;;;;;5048008;28;20186;-73
2022/07/26 11:10:34;;;;;;;1.37;1.27;;;;;;;;;;5046853;28;20188;-72
2022/07/26 11:13:10;;;;;;;2.83;1.30;;;;;;;;;;5045705;28;20193;-73
2022/07/26 11:15:36;;;;;;;1.43;1.33;;;;;;;;;;5047422;28;20434;-73
2022/07/26 11:18:31;;;;;;;2.53;1.20;;;;;;;;;;5051188;28;20267;-72
2022/07/26 11:20:57;;;;;;;1.40;1.30;;;;;;;;;;5055242;28;20185;-73
2022/07/26 11:23:23;;;;;;;1.93;1.40;;;;;;;;;;5046223;28;20204;-73
2022/07/26 11:26:01;;;;;;;2.60;1.50;;;;;;;;;;5051359;28;20216;-73
2022/07/26 11:28:26;;;;;;;1.20;1.10;;;;;;;;;;5042457;28;20212;-72
2022/07/26 11:30:58;;;;;;;1.40;1.30;;;;;;;;;;5048759;28;20224;-73
2022/07/26 11:33:36;;;;;;;1.50;1.40;;;;;;;;;;5040119;28;20186;-73
2022/07/26 11:36:02;;;;;;;1.30;1.20;;;;;;;;;;5046882;28;20177;-73
2022/07/26 11:38:46;;;;;;;2.60;1.27;;;;;;;;;;5046221;28;20201;-73
2022/07/26 11:41:11;;;;;;;1.60;1.17;;;;;;;;;;5041849;28;20179;-73
2022/07/26 11:43:37;;;;;;;1.43;1.27;;;;;;;;;;5045116;28;20384;-73
2022/07/26 11:46:02;;;;;;;2.77;1.20;;;;;;;;;;5040554;28;20184;-72
2022/07/26 11:48:27;;;;;;;1.00;1.00;;;;;;;;;;5048385;28;20218;-72
2022/07/26 11:51:07;;;;;;;4.18;3.78;;;;;;;;;;5051497;28;20216;-73
2022/07/26 11:53:38;;;;;;;1.25;1.15;;;;;;;;;;5036983;28;20201;-73
2022/07/26 11:56:17;;;;;;;1.38;1.25;;;;;;;;;;5046844;28;20249;-73
2022/07/26 11:58:44;;;;;;;1.17;1.08;;;;;;;;;;5035465;28;20242;-73
2022/07/26 12:01:13;;;;;;;2.13;1.30;;;;;;;;;;5043854;28;20258;-72
2022/07/26 12:03:39;;;;;;;1.73;1.17;;;;;;;;;;5041662;28;20183;-73
2022/07/26 12:06:05;;;;;;;1.35;1.25;;;;;;;;;;5051664;28;20185;-73
2022/07/26 12:08:37;;;;;;;1.15;1.05;;;;;;;;;;5045042;28;20223;-73
2022/07/26 12:11:03;;;;;;;7.03;1.33;;;;;;;;;;5048713;28;20235;-72
2022/07/26 12:13:28;;;;;;;1.30;1.20;;;;;;;;;;5042955;28;20182;-73
2022/07/26 12:15:53;;;;;;;2.10;1.30;;;;;;;;;;5049603;28;20405;-73
2022/07/26 12:18:25;;;;;;;4.28;1.27;;;;;;;;;;5044634;28;20198;-73
2022/07/26 12:21:01;;;;;;;6.47;1.40;;;;;;;;;;5053071;28;20174;-73
2022/07/26 12:23:38;;;;;;;1.20;1.10;;;;;;;;;;5042830;28;20185;-73
2022/07/26 12:26:23;;;;;;;1.08;1.02;;;;;;;;;;5045532;28;20185;-73
2022/07/26 12:28:48;;;;;;;0.98;0.98;;;;;;;;;;5040704;28;20174;-73
2022/07/26 12:31:25;;;;;;;1.23;1.13;;;;;;;;;;5046488;28;20178;-73
2022/07/26 12:33:51;;;;;;;1.88;1.52;;;;;;;;;;5039501;28;20265;-73
2022/07/26 12:36:19;;;;;;;1.20;1.10;;;;;;;;;;5038878;28;20281;-73
2022/07/26 12:38:45;;;;;;;3.83;1.20;;;;;;;;;;5043975;28;20226;-73
2022/07/26 12:41:10;;;;;;;2.13;1.10;;;;;;;;;;5041169;28;20205;-73
2022/07/26 12:43:39;;;;;;;1.15;1.05;;;;;;;;;;5037259;28;20174;-72
2022/07/26 12:46:04;;;;;;;1.33;1.17;;;;;;;;;;5037992;28;20478;-73
2022/07/26 12:48:30;;;;;;;2.50;1.23;;;;;;;;;;5038859;28;20305;-73
2022/07/26 12:50:56;;;;;;;1.27;1.10;;;;;;;;;;5048082;28;20182;-73
2022/07/26 12:53:21;;;;;;;1.60;1.15;;;;;;;;;;5044398;28;20207;-73
2022/07/26 12:55:46;;;;;;;1.85;1.25;;;;;;;;;;5042624;28;20221;-73
2022/07/26 12:58:11;;;;;;;1.15;1.10;;;;;;;;;;5039329;28;20240;-73
2022/07/26 13:00:36;;;;;;;1.25;1.10;;;;;;;;;;5042524;28;20190;-73
2022/07/26 13:03:02;;;;;;;1.55;1.45;;;;;;;;;;5041682;28;20178;-73
2022/07/26 13:05:27;;;;;;;1.48;1.20;;;;;;;;;;5036729;28;20172;-73
2022/07/26 13:07:53;;;;;;;1.52;1.20;;;;;;;;;;5047099;28;20193;-73
2022/07/26 13:10:20;;;;;;;1.40;1.30;;;;;;;;;;5044044;28;20175;-73
2022/07/26 13:12:46;;;;;;;1.10;1.10;;;;;;;;;;5042096;28;20186;-73
2022/07/26 13:15:11;;;;;;;1.30;1.20;;;;;;;;;;5037939;28;20185;-73
2022/07/26 13:17:36;;;;;;;1.30;1.20;;;;;;;;;;5034170;28;20214;-73
2022/07/26 13:20:01;;;;;;;1.52;1.40;;;;;;;;;;5042292;28;20228;-73
2022/07/26 13:22:26;;;;;;;2.40;1.70;;;;;;;;;;5037973;28;20175;-73
2022/07/26 13:24:52;;;;;;;11.88;4.85;;;;;;;;;;5045447;28;20182;-73
2022/07/26 13:27:17;;;;;;;1.30;1.20;;;;;;;;;;5043810;28;20189;-73
2022/07/26 13:29:42;;;;;;;1.48;1.13;;;;;;;;;;5040689;28;20177;-73
2022/07/26 13:32:07;;;;;;;1.02;1.02;;;;;;;;;;5047370;28;20190;-73
2022/07/26 13:34:33;;;;;;;1.25;1.15;;;;;;;;;;5037561;28;20181;-73
2022/07/26 13:36:59;;;;;;;1.23;1.13;;;;;;;;;;5042101;28;20178;-73
2022/07/26 13:39:26;;;;;;;4.55;1.20;;;;;;;;;;5037796;28;20218;-73
2022/07/26 13:41:51;;;;;;;2.25;1.50;;;;;;;;;;5044723;28;20171;-73
2022/07/26 13:44:16;;;;;;;1.42;1.13;;;;;;;;;;5043548;28;20174;-73
2022/07/26 13:46:41;;;;;;;1.67;1.20;;;;;;;;;;5039244;28;20171;-73
2022/07/26 13:49:07;;;;;;;1.63;1.08;;;;;;;;;;5052583;28;20225;-73
2022/07/26 13:54:19;;;;;;;2.17;1.10;;;;;;;;;;5037623;28;20247;-73
2022/07/26 13:56:45;;;;;;;1.60;1.00;;;;;;;;;;5038099;28;20202;-73
2022/07/26 13:59:11;;;;;;;1.20;1.10;;;;;;;;;;5042733;28;20219;-73
2022/07/26 14:01:36;;;;;;;1.50;1.40;;;;;;;;;;5047284;28;20265;-73
2022/07/26 14:04:02;;;;;;;1.40;1.30;;;;;;;;;;5036876;28;20178;-73
2022/07/26 14:06:28;;;;;;;1.42;1.10;;;;;;;;;;5043196;28;20175;-73
2022/07/26 14:08:53;;;;;;;0.88;0.88;;;;;;;;;;5043960;28;20324;-73
2022/07/26 14:11:18;;;;;;;1.08;1.00;;;;;;;;;;5039713;28;20240;-73
2022/07/26 14:13:46;;;;;;;1.58;1.10;;;;;;;;;;5042230;28;20207;-73
2022/07/26 14:16:11;;;;;;;3.90;1.40;;;;;;;;;;5039488;28;20186;-73
2022/07/26 14:18:36;;;;;;;0.90;0.90;;;;;;;;;;5042870;28;20252;-73
2022/07/26 14:21:02;;;;;;;1.65;1.30;;;;;;;;;;5040377;28;20194;-73
2022/07/26 14:23:28;;;;;;;1.83;1.38;;;;;;;;;;5043187;28;20580;-73
2022/07/26 14:25:53;;;;;;;1.65;1.30;;;;;;;;;;5050177;28;20174;-73
2022/07/26 14:28:18;;;;;;;1.67;1.15;;;;;;;;;;5045036;28;20186;-73
2022/07/26 14:30:43;;;;;;;1.02;0.90;;;;;;;;;;5049768;28;20170;-73
2022/07/26 14:33:08;;;;;;;4.90;1.30;;;;;;;;;;5041477;28;20191;-73
2022/07/26 14:35:34;;;;;;;1.92;1.30;;;;;;;;;;5048585;28;20174;-73
2022/07/26 14:37:59;;;;;;;1.10;1.02;;;;;;;;;;5041585;28;20229;-73
2022/07/26 14:40:24;;;;;;;1.75;1.30;;;;;;;;;;5039873;28;20171;-73
2022/07/26 14:42:52;;;;;;;1.27;1.17;;;;;;;;;;5047221;28;20241;-73